Stacja Pogody Warszawa Praga Północ 


Stacja Pogody
Warszawa Praga Północ

 Szerokość N 52° 15 '43"    Długość E 21° 01' 22"    Wysokość 89 m n.p.m.


Wschód Słońca 07:19 Górowanie Słońca 11:24 Zachód Słońca 15:28 strzelec
Data juliańska 2456991.885 Odległość Słońca 147536133 km Średn. kątowa Słońca 0,324°
Wschód Księżyca 12:05 Zachód Księżyca 23:41 Wiek Księżyca 7 dni Moon
Widoczność Księżyca 48,52% Odległość Księżyca 363401 km Średn. kątowa Księżyca 0,329°
Dzień krótszy od najdłuższego o: 08:37 Długość dnia 08:09 Imieniny Błażeja, Saturnina




Warunki pogodowe uaktualnione 29-11-2014, o godzinie 09:11
Temperatura -5.7 °C ↑ Temperatura odczuwalna -9.2 °C
Punkt rosy -7.4 °C Humidex -9.3 °C
Deszcz na godzinę 0.0 mm Wilgotność względna 88% →
Prędkość wiatru (średnia) 0 km/h → Prędkość wiatru (podmuch) 4 km/h
Kierunek wiatru S Skala Beaufort'a 1
Ciśnienie względne  1030 hPa Trend ciśnienia powolny wzrost
Ciśnienie bezwzględne  1018 hPa Podstawa chmur 293.0 m
METAR EPWA 290800Z 10009KT 8000 BKN010 M06/M08 Q1030 NOSIG
TAF TAF EPWA 290530Z 2906/3006 10010KT 9999 BKN014





 a

Valid XHTML 1.0 Transitional Valid CSS!